sensor_id;sensor_type;location;lat;lon;timestamp;P1;durP1;ratioP1;P2;durP2;ratioP2
69434;SDS011;56625;54.322;18.582;2022-09-02T00:01:42;6.30;;;1.50;;
69434;SDS011;56625;54.322;18.582;2022-09-02T00:04:16;7.90;;;2.10;;
69434;SDS011;56625;54.322;18.582;2022-09-02T00:06:48;7.70;;;1.70;;
69434;SDS011;56625;54.322;18.582;2022-09-02T00:09:20;7.10;;;1.80;;
69434;SDS011;56625;54.322;18.582;2022-09-02T00:11:52;5.50;;;1.50;;
69434;SDS011;56625;54.322;18.582;2022-09-02T00:14:28;5.80;;;1.40;;
69434;SDS011;56625;54.322;18.582;2022-09-02T00:16:59;5.10;;;1.10;;
69434;SDS011;56625;54.322;18.582;2022-09-02T00:19:29;7.40;;;1.60;;
69434;SDS011;56625;54.322;18.582;2022-09-02T00:21:59;7.50;;;1.90;;
69434;SDS011;56625;54.322;18.582;2022-09-02T00:24:28;5.60;;;1.20;;
69434;SDS011;56625;54.322;18.582;2022-09-02T00:26:57;5.10;;;1.20;;
69434;SDS011;56625;54.322;18.582;2022-09-02T00:29:26;7.40;;;1.60;;
69434;SDS011;56625;54.322;18.582;2022-09-02T00:31:54;7.30;;;1.60;;
69434;SDS011;56625;54.322;18.582;2022-09-02T00:34:23;6.80;;;1.70;;
69434;SDS011;56625;54.322;18.582;2022-09-02T00:36:52;6.20;;;1.70;;
69434;SDS011;56625;54.322;18.582;2022-09-02T00:39:19;7.10;;;1.60;;
69434;SDS011;56625;54.322;18.582;2022-09-02T00:41:47;6.50;;;1.70;;
69434;SDS011;56625;54.322;18.582;2022-09-02T00:44:17;5.90;;;1.50;;
69434;SDS011;56625;54.322;18.582;2022-09-02T00:46:46;5.60;;;0.90;;
69434;SDS011;56625;54.322;18.582;2022-09-02T00:49:20;3.90;;;0.80;;
69434;SDS011;56625;54.322;18.582;2022-09-02T00:52:05;4.80;;;1.00;;
69434;SDS011;56625;54.322;18.582;2022-09-02T00:54:53;4.50;;;1.00;;
69434;SDS011;56625;54.322;18.582;2022-09-02T00:57:30;4.20;;;0.80;;
69434;SDS011;56625;54.322;18.582;2022-09-02T01:00:12;4.30;;;0.90;;
69434;SDS011;56625;54.322;18.582;2022-09-02T01:02:50;4.60;;;0.90;;
69434;SDS011;56625;54.322;18.582;2022-09-02T01:05:23;5.90;;;0.80;;
69434;SDS011;56625;54.322;18.582;2022-09-02T01:07:53;4.20;;;0.90;;
69434;SDS011;56625;54.322;18.582;2022-09-02T01:10:26;5.80;;;1.10;;
69434;SDS011;56625;54.322;18.582;2022-09-02T01:12:57;5.20;;;0.90;;
69434;SDS011;56625;54.322;18.582;2022-09-02T01:15:27;4.90;;;1.00;;
69434;SDS011;56625;54.322;18.582;2022-09-02T01:17:57;4.30;;;0.90;;
69434;SDS011;56625;54.322;18.582;2022-09-02T01:20:26;4.70;;;1.10;;
69434;SDS011;56625;54.322;18.582;2022-09-02T01:22:54;4.80;;;1.10;;
69434;SDS011;56625;54.322;18.582;2022-09-02T01:25:29;5.90;;;1.10;;
69434;SDS011;56625;54.322;18.582;2022-09-02T01:28:01;4.60;;;1.00;;
69434;SDS011;56625;54.322;18.582;2022-09-02T01:30:41;4.90;;;0.80;;
69434;SDS011;56625;54.322;18.582;2022-09-02T01:33:12;4.50;;;0.80;;
69434;SDS011;56625;54.322;18.582;2022-09-02T01:35:41;6.20;;;0.90;;
69434;SDS011;56625;54.322;18.582;2022-09-02T01:38:10;5.20;;;0.90;;
69434;SDS011;56625;54.322;18.582;2022-09-02T01:40:39;4.80;;;0.80;;
69434;SDS011;56625;54.322;18.582;2022-09-02T01:43:17;5.70;;;0.90;;
69434;SDS011;56625;54.322;18.582;2022-09-02T01:45:50;5.10;;;1.00;;
69434;SDS011;56625;54.322;18.582;2022-09-02T01:48:21;3.30;;;0.60;;
69434;SDS011;56625;54.322;18.582;2022-09-02T01:50:53;5.40;;;0.90;;
69434;SDS011;56625;54.322;18.582;2022-09-02T01:53:24;7.30;;;1.10;;
69434;SDS011;56625;54.322;18.582;2022-09-02T01:55:52;5.10;;;1.00;;
69434;SDS011;56625;54.322;18.582;2022-09-02T01:58:21;3.90;;;0.70;;
69434;SDS011;56625;54.322;18.582;2022-09-02T02:00:50;5.00;;;0.80;;
69434;SDS011;56625;54.322;18.582;2022-09-02T02:03:18;5.10;;;1.00;;
69434;SDS011;56625;54.322;18.582;2022-09-02T02:05:47;5.70;;;1.00;;
69434;SDS011;56625;54.322;18.582;2022-09-02T02:08:15;5.40;;;0.90;;
69434;SDS011;56625;54.322;18.582;2022-09-02T02:10:44;4.80;;;1.00;;
69434;SDS011;56625;54.322;18.582;2022-09-02T02:13:12;4.60;;;0.80;;
69434;SDS011;56625;54.322;18.582;2022-09-02T02:15:42;3.50;;;0.80;;
69434;SDS011;56625;54.322;18.582;2022-09-02T02:18:12;3.90;;;0.80;;
69434;SDS011;56625;54.322;18.582;2022-09-02T02:20:39;3.40;;;0.70;;
69434;SDS011;56625;54.322;18.582;2022-09-02T02:23:11;4.20;;;0.80;;
69434;SDS011;56625;54.322;18.582;2022-09-02T02:25:39;4.00;;;0.90;;
69434;SDS011;56625;54.322;18.582;2022-09-02T02:28:08;4.00;;;0.60;;
69434;SDS011;56625;54.322;18.582;2022-09-02T02:30:37;3.70;;;0.70;;
69434;SDS011;56625;54.322;18.582;2022-09-02T02:33:05;4.00;;;0.80;;
69434;SDS011;56625;54.322;18.582;2022-09-02T02:35:33;3.50;;;0.70;;
69434;SDS011;56625;54.322;18.582;2022-09-02T02:38:01;4.70;;;0.70;;
69434;SDS011;56625;54.322;18.582;2022-09-02T02:40:30;5.20;;;0.90;;
69434;SDS011;56625;54.322;18.582;2022-09-02T02:42:59;5.00;;;0.90;;
69434;SDS011;56625;54.322;18.582;2022-09-02T02:45:27;4.80;;;1.00;;
69434;SDS011;56625;54.322;18.582;2022-09-02T02:47:55;3.70;;;0.80;;
69434;SDS011;56625;54.322;18.582;2022-09-02T02:50:24;5.50;;;1.40;;
69434;SDS011;56625;54.322;18.582;2022-09-02T02:52:52;5.60;;;1.00;;
69434;SDS011;56625;54.322;18.582;2022-09-02T02:55:23;5.20;;;1.00;;
69434;SDS011;56625;54.322;18.582;2022-09-02T02:57:52;6.70;;;1.20;;
69434;SDS011;56625;54.322;18.582;2022-09-02T03:00:23;5.80;;;0.70;;
69434;SDS011;56625;54.322;18.582;2022-09-02T03:03:02;3.10;;;0.80;;
69434;SDS011;56625;54.322;18.582;2022-09-02T03:05:33;4.50;;;1.10;;
69434;SDS011;56625;54.322;18.582;2022-09-02T03:08:06;5.90;;;1.20;;
69434;SDS011;56625;54.322;18.582;2022-09-02T03:10:36;4.30;;;0.90;;
69434;SDS011;56625;54.322;18.582;2022-09-02T03:13:09;3.90;;;0.70;;
69434;SDS011;56625;54.322;18.582;2022-09-02T03:15:38;5.10;;;1.00;;
69434;SDS011;56625;54.322;18.582;2022-09-02T03:18:07;4.20;;;0.80;;
69434;SDS011;56625;54.322;18.582;2022-09-02T03:20:35;4.20;;;1.10;;
69434;SDS011;56625;54.322;18.582;2022-09-02T03:23:03;5.30;;;1.40;;
69434;SDS011;56625;54.322;18.582;2022-09-02T03:25:32;5.80;;;1.30;;
69434;SDS011;56625;54.322;18.582;2022-09-02T03:28:03;5.40;;;1.40;;
69434;SDS011;56625;54.322;18.582;2022-09-02T03:30:32;6.20;;;1.00;;
69434;SDS011;56625;54.322;18.582;2022-09-02T03:33:02;4.80;;;0.70;;
69434;SDS011;56625;54.322;18.582;2022-09-02T03:35:37;5.20;;;1.00;;
69434;SDS011;56625;54.322;18.582;2022-09-02T03:38:09;5.00;;;0.90;;
69434;SDS011;56625;54.322;18.582;2022-09-02T03:40:38;4.70;;;1.20;;
69434;SDS011;56625;54.322;18.582;2022-09-02T03:43:06;4.70;;;1.20;;
69434;SDS011;56625;54.322;18.582;2022-09-02T03:45:34;3.80;;;0.80;;
69434;SDS011;56625;54.322;18.582;2022-09-02T03:48:02;2.90;;;0.60;;
69434;SDS011;56625;54.322;18.582;2022-09-02T03:50:35;3.50;;;0.80;;
69434;SDS011;56625;54.322;18.582;2022-09-02T03:53:07;5.30;;;0.80;;
69434;SDS011;56625;54.322;18.582;2022-09-02T03:55:46;3.90;;;0.70;;
69434;SDS011;56625;54.322;18.582;2022-09-02T03:58:17;2.80;;;0.50;;
69434;SDS011;56625;54.322;18.582;2022-09-02T04:00:52;4.20;;;0.60;;
69434;SDS011;56625;54.322;18.582;2022-09-02T04:03:21;3.50;;;0.60;;
69434;SDS011;56625;54.322;18.582;2022-09-02T04:05:50;3.00;;;0.50;;
69434;SDS011;56625;54.322;18.582;2022-09-02T04:08:19;3.70;;;0.50;;
69434;SDS011;56625;54.322;18.582;2022-09-02T04:10:47;3.60;;;0.50;;
69434;SDS011;56625;54.322;18.582;2022-09-02T04:13:16;8.10;;;0.80;;
69434;SDS011;56625;54.322;18.582;2022-09-02T04:15:45;3.50;;;0.50;;
69434;SDS011;56625;54.322;18.582;2022-09-02T04:18:16;2.60;;;0.30;;
69434;SDS011;56625;54.322;18.582;2022-09-02T04:20:44;3.30;;;0.50;;
69434;SDS011;56625;54.322;18.582;2022-09-02T04:23:12;4.50;;;0.50;;
69434;SDS011;56625;54.322;18.582;2022-09-02T04:25:42;5.10;;;0.90;;
69434;SDS011;56625;54.322;18.582;2022-09-02T04:28:10;4.40;;;0.50;;
69434;SDS011;56625;54.322;18.582;2022-09-02T04:30:41;3.30;;;0.60;;
69434;SDS011;56625;54.322;18.582;2022-09-02T04:33:10;7.50;;;1.10;;
69434;SDS011;56625;54.322;18.582;2022-09-02T04:35:42;5.40;;;0.90;;
69434;SDS011;56625;54.322;18.582;2022-09-02T04:38:12;3.30;;;0.70;;
69434;SDS011;56625;54.322;18.582;2022-09-02T04:40:42;3.10;;;0.50;;
69434;SDS011;56625;54.322;18.582;2022-09-02T04:43:13;8.20;;;0.60;;
69434;SDS011;56625;54.322;18.582;2022-09-02T04:45:42;6.80;;;0.80;;
69434;SDS011;56625;54.322;18.582;2022-09-02T04:48:11;6.30;;;0.70;;
69434;SDS011;56625;54.322;18.582;2022-09-02T04:50:40;3.80;;;0.80;;
69434;SDS011;56625;54.322;18.582;2022-09-02T04:53:10;4.10;;;0.60;;
69434;SDS011;56625;54.322;18.582;2022-09-02T04:55:40;7.20;;;0.90;;
69434;SDS011;56625;54.322;18.582;2022-09-02T04:58:09;4.20;;;0.70;;
69434;SDS011;56625;54.322;18.582;2022-09-02T05:00:38;6.30;;;0.70;;
69434;SDS011;56625;54.322;18.582;2022-09-02T05:03:06;7.10;;;0.70;;
69434;SDS011;56625;54.322;18.582;2022-09-02T05:05:34;12.70;;;0.80;;
69434;SDS011;56625;54.322;18.582;2022-09-02T05:08:02;14.30;;;1.20;;
69434;SDS011;56625;54.322;18.582;2022-09-02T05:10:31;6.10;;;1.10;;
69434;SDS011;56625;54.322;18.582;2022-09-02T05:13:00;4.80;;;0.70;;
69434;SDS011;56625;54.322;18.582;2022-09-02T05:15:27;7.10;;;0.70;;
69434;SDS011;56625;54.322;18.582;2022-09-02T05:17:56;8.10;;;0.60;;
69434;SDS011;56625;54.322;18.582;2022-09-02T05:20:24;8.60;;;0.90;;
69434;SDS011;56625;54.322;18.582;2022-09-02T05:22:52;4.90;;;0.70;;
69434;SDS011;56625;54.322;18.582;2022-09-02T05:25:20;4.60;;;0.90;;
69434;SDS011;56625;54.322;18.582;2022-09-02T05:27:49;5.20;;;0.80;;
69434;SDS011;56625;54.322;18.582;2022-09-02T05:30:16;11.90;;;1.00;;
69434;SDS011;56625;54.322;18.582;2022-09-02T05:32:44;5.80;;;0.80;;
69434;SDS011;56625;54.322;18.582;2022-09-02T05:35:13;7.30;;;1.00;;
69434;SDS011;56625;54.322;18.582;2022-09-02T05:37:42;5.20;;;0.70;;
69434;SDS011;56625;54.322;18.582;2022-09-02T05:40:10;3.90;;;0.60;;
69434;SDS011;56625;54.322;18.582;2022-09-02T05:42:47;3.30;;;0.50;;
69434;SDS011;56625;54.322;18.582;2022-09-02T05:45:15;6.90;;;0.70;;
69434;SDS011;56625;54.322;18.582;2022-09-02T05:47:46;6.90;;;1.10;;
69434;SDS011;56625;54.322;18.582;2022-09-02T05:50:19;4.50;;;0.70;;
69434;SDS011;56625;54.322;18.582;2022-09-02T05:52:50;4.20;;;0.80;;
69434;SDS011;56625;54.322;18.582;2022-09-02T05:55:18;4.90;;;0.80;;
69434;SDS011;56625;54.322;18.582;2022-09-02T05:57:50;5.70;;;1.20;;
69434;SDS011;56625;54.322;18.582;2022-09-02T06:00:18;11.30;;;1.40;;
69434;SDS011;56625;54.322;18.582;2022-09-02T06:02:51;10.90;;;1.00;;
69434;SDS011;56625;54.322;18.582;2022-09-02T06:05:35;8.50;;;1.10;;
69434;SDS011;56625;54.322;18.582;2022-09-02T06:08:05;14.60;;;1.00;;
69434;SDS011;56625;54.322;18.582;2022-09-02T06:10:40;4.30;;;0.80;;
69434;SDS011;56625;54.322;18.582;2022-09-02T06:13:09;12.80;;;1.30;;
69434;SDS011;56625;54.322;18.582;2022-09-02T06:15:42;8.40;;;0.90;;
69434;SDS011;56625;54.322;18.582;2022-09-02T06:18:12;5.70;;;0.70;;
69434;SDS011;56625;54.322;18.582;2022-09-02T06:20:46;3.60;;;0.50;;
69434;SDS011;56625;54.322;18.582;2022-09-02T06:23:15;5.20;;;0.80;;
69434;SDS011;56625;54.322;18.582;2022-09-02T06:25:49;6.70;;;1.30;;
69434;SDS011;56625;54.322;18.582;2022-09-02T06:28:18;7.80;;;0.90;;
69434;SDS011;56625;54.322;18.582;2022-09-02T06:30:46;12.10;;;1.30;;
69434;SDS011;56625;54.322;18.582;2022-09-02T06:33:17;8.10;;;1.00;;
69434;SDS011;56625;54.322;18.582;2022-09-02T06:35:45;7.00;;;0.70;;
69434;SDS011;56625;54.322;18.582;2022-09-02T06:38:13;6.80;;;1.00;;
69434;SDS011;56625;54.322;18.582;2022-09-02T06:40:52;4.90;;;0.90;;
69434;SDS011;56625;54.322;18.582;2022-09-02T06:43:21;4.80;;;0.70;;
69434;SDS011;56625;54.322;18.582;2022-09-02T06:45:50;3.30;;;0.50;;
69434;SDS011;56625;54.322;18.582;2022-09-02T06:48:18;4.40;;;0.60;;
69434;SDS011;56625;54.322;18.582;2022-09-02T06:50:47;4.50;;;0.50;;
69434;SDS011;56625;54.322;18.582;2022-09-02T06:53:15;4.30;;;0.60;;
69434;SDS011;56625;54.322;18.582;2022-09-02T06:55:45;4.30;;;0.70;;
69434;SDS011;56625;54.322;18.582;2022-09-02T06:58:14;4.70;;;0.50;;
69434;SDS011;56625;54.322;18.582;2022-09-02T07:00:42;7.10;;;0.50;;
69434;SDS011;56625;54.322;18.582;2022-09-02T07:03:11;8.30;;;1.20;;
69434;SDS011;56625;54.322;18.582;2022-09-02T07:06:09;6.70;;;0.70;;
69434;SDS011;56625;54.322;18.582;2022-09-02T07:08:40;5.90;;;0.60;;
69434;SDS011;56625;54.322;18.582;2022-09-02T07:11:19;5.60;;;0.90;;
69434;SDS011;56625;54.322;18.582;2022-09-02T07:13:50;4.50;;;0.60;;
69434;SDS011;56625;54.322;18.582;2022-09-02T07:16:23;10.30;;;0.80;;
69434;SDS011;56625;54.322;18.582;2022-09-02T07:18:55;4.80;;;0.40;;
69434;SDS011;56625;54.322;18.582;2022-09-02T07:21:30;3.30;;;0.40;;
69434;SDS011;56625;54.322;18.582;2022-09-02T07:23:59;2.90;;;0.50;;
69434;SDS011;56625;54.322;18.582;2022-09-02T07:26:28;2.20;;;0.40;;
69434;SDS011;56625;54.322;18.582;2022-09-02T07:29:01;3.10;;;0.50;;
69434;SDS011;56625;54.322;18.582;2022-09-02T07:31:31;3.10;;;0.60;;
69434;SDS011;56625;54.322;18.582;2022-09-02T07:34:02;2.90;;;0.40;;
69434;SDS011;56625;54.322;18.582;2022-09-02T07:36:33;2.50;;;0.50;;
69434;SDS011;56625;54.322;18.582;2022-09-02T07:39:06;2.50;;;0.40;;
69434;SDS011;56625;54.322;18.582;2022-09-02T07:41:38;3.70;;;0.40;;
69434;SDS011;56625;54.322;18.582;2022-09-02T07:44:06;2.60;;;0.40;;
69434;SDS011;56625;54.322;18.582;2022-09-02T07:46:37;3.30;;;0.40;;
69434;SDS011;56625;54.322;18.582;2022-09-02T07:49:12;3.60;;;0.60;;
69434;SDS011;56625;54.322;18.582;2022-09-02T07:51:43;5.50;;;0.50;;
69434;SDS011;56625;54.322;18.582;2022-09-02T07:54:16;3.40;;;0.60;;
69434;SDS011;56625;54.322;18.582;2022-09-02T07:56:45;3.20;;;0.40;;
69434;SDS011;56625;54.322;18.582;2022-09-02T07:59:13;3.30;;;0.40;;
69434;SDS011;56625;54.322;18.582;2022-09-02T08:01:42;1.70;;;0.40;;
69434;SDS011;56625;54.322;18.582;2022-09-02T08:04:10;4.10;;;0.60;;
69434;SDS011;56625;54.322;18.582;2022-09-02T08:06:42;2.50;;;0.30;;
69434;SDS011;56625;54.322;18.582;2022-09-02T08:09:10;3.80;;;0.40;;
69434;SDS011;56625;54.322;18.582;2022-09-02T08:11:41;3.20;;;0.30;;
69434;SDS011;56625;54.322;18.582;2022-09-02T08:14:13;2.70;;;0.30;;
69434;SDS011;56625;54.322;18.582;2022-09-02T08:16:45;4.80;;;0.50;;
69434;SDS011;56625;54.322;18.582;2022-09-02T08:19:14;1.90;;;0.20;;
69434;SDS011;56625;54.322;18.582;2022-09-02T08:21:43;2.20;;;0.30;;
69434;SDS011;56625;54.322;18.582;2022-09-02T08:24:11;1.90;;;0.30;;
69434;SDS011;56625;54.322;18.582;2022-09-02T08:26:39;3.40;;;0.40;;
69434;SDS011;56625;54.322;18.582;2022-09-02T08:29:08;2.30;;;0.30;;
69434;SDS011;56625;54.322;18.582;2022-09-02T08:31:37;2.30;;;0.30;;
69434;SDS011;56625;54.322;18.582;2022-09-02T08:34:05;3.60;;;0.30;;
69434;SDS011;56625;54.322;18.582;2022-09-02T08:36:33;3.30;;;0.30;;
69434;SDS011;56625;54.322;18.582;2022-09-02T08:39:03;1.60;;;0.20;;
69434;SDS011;56625;54.322;18.582;2022-09-02T08:44:20;2.70;;;0.30;;
69434;SDS011;56625;54.322;18.582;2022-09-02T08:46:54;0.90;;;0.20;;
69434;SDS011;56625;54.322;18.582;2022-09-02T08:49:41;3.10;;;0.20;;
69434;SDS011;56625;54.322;18.582;2022-09-02T08:52:28;1.20;;;0.20;;
69434;SDS011;56625;54.322;18.582;2022-09-02T08:55:22;0.90;;;0.20;;
69434;SDS011;56625;54.322;18.582;2022-09-02T08:57:59;1.20;;;0.20;;
69434;SDS011;56625;54.322;18.582;2022-09-02T09:00:34;2.20;;;0.30;;
69434;SDS011;56625;54.322;18.582;2022-09-02T09:03:20;1.70;;;0.20;;
69434;SDS011;56625;54.322;18.582;2022-09-02T09:06:16;2.60;;;0.30;;
69434;SDS011;56625;54.322;18.582;2022-09-02T09:09:12;2.80;;;0.40;;
69434;SDS011;56625;54.322;18.582;2022-09-02T09:18:14;1.00;;;0.10;;
69434;SDS011;56625;54.322;18.582;2022-09-02T09:20:50;1.80;;;0.20;;
69434;SDS011;56625;54.322;18.582;2022-09-02T09:23:29;1.90;;;0.20;;
69434;SDS011;56625;54.322;18.582;2022-09-02T09:26:09;3.70;;;0.30;;
69434;SDS011;56625;54.322;18.582;2022-09-02T09:28:48;5.30;;;0.40;;
69434;SDS011;56625;54.322;18.582;2022-09-02T09:31:23;4.20;;;0.40;;
69434;SDS011;56625;54.322;18.582;2022-09-02T09:34:11;3.60;;;0.30;;
69434;SDS011;56625;54.322;18.582;2022-09-02T09:39:20;4.20;;;0.40;;
69434;SDS011;56625;54.322;18.582;2022-09-02T09:42:03;3.50;;;0.30;;
69434;SDS011;56625;54.322;18.582;2022-09-02T09:44:47;1.70;;;0.30;;
69434;SDS011;56625;54.322;18.582;2022-09-02T09:47:21;3.80;;;0.50;;
69434;SDS011;56625;54.322;18.582;2022-09-02T09:50:10;4.30;;;0.70;;
69434;SDS011;56625;54.322;18.582;2022-09-02T09:52:43;5.60;;;0.50;;
69434;SDS011;56625;54.322;18.582;2022-09-02T09:55:20;4.60;;;0.40;;
69434;SDS011;56625;54.322;18.582;2022-09-02T09:57:52;1.60;;;0.20;;
69434;SDS011;56625;54.322;18.582;2022-09-02T10:00:33;4.10;;;0.50;;
69434;SDS011;56625;54.322;18.582;2022-09-02T10:03:07;3.30;;;0.60;;
69434;SDS011;56625;54.322;18.582;2022-09-02T10:05:46;6.40;;;0.50;;
69434;SDS011;56625;54.322;18.582;2022-09-02T10:11:05;2.00;;;0.40;;
69434;SDS011;56625;54.322;18.582;2022-09-02T10:13:46;3.90;;;0.70;;
69434;SDS011;56625;54.322;18.582;2022-09-02T10:16:39;6.90;;;0.70;;
69434;SDS011;56625;54.322;18.582;2022-09-02T10:22:06;4.80;;;0.40;;
69434;SDS011;56625;54.322;18.582;2022-09-02T10:25:47;2.80;;;0.20;;
69434;SDS011;56625;54.322;18.582;2022-09-02T10:28:46;3.40;;;0.30;;
69434;SDS011;56625;54.322;18.582;2022-09-02T10:31:46;2.70;;;0.20;;
69434;SDS011;56625;54.322;18.582;2022-09-02T10:34:38;3.00;;;0.20;;
69434;SDS011;56625;54.322;18.582;2022-09-02T10:37:26;1.80;;;0.20;;
69434;SDS011;56625;54.322;18.582;2022-09-02T10:45:41;1.70;;;0.30;;
69434;SDS011;56625;54.322;18.582;2022-09-02T10:51:05;2.90;;;0.30;;
69434;SDS011;56625;54.322;18.582;2022-09-02T10:56:26;3.30;;;0.30;;
69434;SDS011;56625;54.322;18.582;2022-09-02T10:59:20;2.70;;;0.30;;
69434;SDS011;56625;54.322;18.582;2022-09-02T11:01:59;4.80;;;0.40;;
69434;SDS011;56625;54.322;18.582;2022-09-02T11:04:55;4.50;;;0.50;;
69434;SDS011;56625;54.322;18.582;2022-09-02T11:07:43;4.00;;;0.40;;
69434;SDS011;56625;54.322;18.582;2022-09-02T11:10:22;3.50;;;0.50;;
69434;SDS011;56625;54.322;18.582;2022-09-02T11:13:06;2.70;;;0.20;;
69434;SDS011;56625;54.322;18.582;2022-09-02T11:15:52;4.10;;;0.40;;
69434;SDS011;56625;54.322;18.582;2022-09-02T11:18:33;2.90;;;0.40;;
69434;SDS011;56625;54.322;18.582;2022-09-02T11:21:26;3.10;;;0.50;;
69434;SDS011;56625;54.322;18.582;2022-09-02T11:24:05;2.60;;;0.30;;
69434;SDS011;56625;54.322;18.582;2022-09-02T11:26:53;2.20;;;0.40;;
69434;SDS011;56625;54.322;18.582;2022-09-02T11:29:53;2.90;;;0.50;;
69434;SDS011;56625;54.322;18.582;2022-09-02T11:32:38;2.90;;;0.50;;
69434;SDS011;56625;54.322;18.582;2022-09-02T11:35:22;2.40;;;0.40;;
69434;SDS011;56625;54.322;18.582;2022-09-02T11:38:00;3.80;;;0.60;;
69434;SDS011;56625;54.322;18.582;2022-09-02T11:44:32;4.90;;;0.40;;
69434;SDS011;56625;54.322;18.582;2022-09-02T11:50:03;1.90;;;0.20;;
69434;SDS011;56625;54.322;18.582;2022-09-02T11:53:17;3.10;;;0.30;;
69434;SDS011;56625;54.322;18.582;2022-09-02T11:56:03;2.60;;;0.30;;
69434;SDS011;56625;54.322;18.582;2022-09-02T11:58:47;3.70;;;0.40;;
69434;SDS011;56625;54.322;18.582;2022-09-02T12:01:39;2.20;;;0.40;;
69434;SDS011;56625;54.322;18.582;2022-09-02T12:04:19;2.20;;;0.30;;
69434;SDS011;56625;54.322;18.582;2022-09-02T12:09:48;2.40;;;0.40;;
69434;SDS011;56625;54.322;18.582;2022-09-02T12:23:09;2.00;;;0.30;;
69434;SDS011;56625;54.322;18.582;2022-09-02T12:26:17;3.30;;;0.30;;
69434;SDS011;56625;54.322;18.582;2022-09-02T12:28:48;3.30;;;0.20;;
69434;SDS011;56625;54.322;18.582;2022-09-02T12:31:40;2.10;;;0.30;;
69434;SDS011;56625;54.322;18.582;2022-09-02T12:37:00;2.10;;;0.30;;
69434;SDS011;56625;54.322;18.582;2022-09-02T12:45:10;6.70;;;1.10;;
69434;SDS011;56625;54.322;18.582;2022-09-02T12:50:49;3.70;;;0.30;;
69434;SDS011;56625;54.322;18.582;2022-09-02T12:53:36;2.80;;;0.30;;
69434;SDS011;56625;54.322;18.582;2022-09-02T12:58:49;2.80;;;0.30;;
69434;SDS011;56625;54.322;18.582;2022-09-02T13:01:53;1.60;;;0.30;;
69434;SDS011;56625;54.322;18.582;2022-09-02T13:10:21;4.90;;;0.50;;
69434;SDS011;56625;54.322;18.582;2022-09-02T13:13:10;2.30;;;0.40;;
69434;SDS011;56625;54.322;18.582;2022-09-02T13:16:01;4.20;;;0.40;;
69434;SDS011;56625;54.322;18.582;2022-09-02T13:22:22;3.30;;;0.30;;
69434;SDS011;56625;54.322;18.582;2022-09-02T13:25:15;2.40;;;0.30;;
69434;SDS011;56625;54.322;18.582;2022-09-02T13:31:25;4.30;;;0.30;;
69434;SDS011;56625;54.322;18.582;2022-09-02T13:34:09;3.90;;;0.30;;
69434;SDS011;56625;54.322;18.582;2022-09-02T13:36:42;2.80;;;0.30;;
69434;SDS011;56625;54.322;18.582;2022-09-02T13:39:22;5.50;;;0.20;;
69434;SDS011;56625;54.322;18.582;2022-09-02T13:41:53;1.50;;;0.20;;
69434;SDS011;56625;54.322;18.582;2022-09-02T13:44:25;2.30;;;0.10;;
69434;SDS011;56625;54.322;18.582;2022-09-02T13:47:11;1.50;;;0.20;;
69434;SDS011;56625;54.322;18.582;2022-09-02T13:49:49;2.70;;;0.20;;
69434;SDS011;56625;54.322;18.582;2022-09-02T13:52:24;6.20;;;0.30;;
69434;SDS011;56625;54.322;18.582;2022-09-02T13:55:21;1.50;;;0.20;;
69434;SDS011;56625;54.322;18.582;2022-09-02T13:57:56;0.90;;;0.10;;
69434;SDS011;56625;54.322;18.582;2022-09-02T14:00:34;1.60;;;0.10;;
69434;SDS011;56625;54.322;18.582;2022-09-02T14:03:19;1.00;;;0.10;;
69434;SDS011;56625;54.322;18.582;2022-09-02T14:05:52;1.30;;;0.20;;
69434;SDS011;56625;54.322;18.582;2022-09-02T14:08:26;0.80;;;0.10;;
69434;SDS011;56625;54.322;18.582;2022-09-02T14:10:57;2.00;;;0.10;;
69434;SDS011;56625;54.322;18.582;2022-09-02T14:13:25;2.00;;;0.20;;
69434;SDS011;56625;54.322;18.582;2022-09-02T14:16:33;0.70;;;0.10;;
69434;SDS011;56625;54.322;18.582;2022-09-02T14:19:23;2.90;;;0.20;;
69434;SDS011;56625;54.322;18.582;2022-09-02T14:21:54;2.70;;;0.30;;
69434;SDS011;56625;54.322;18.582;2022-09-02T14:24:28;1.80;;;0.10;;
69434;SDS011;56625;54.322;18.582;2022-09-02T14:27:16;2.70;;;0.20;;
69434;SDS011;56625;54.322;18.582;2022-09-02T14:29:56;0.70;;;0.10;;
69434;SDS011;56625;54.322;18.582;2022-09-02T14:32:27;4.20;;;0.30;;
69434;SDS011;56625;54.322;18.582;2022-09-02T14:35:17;1.40;;;0.10;;
69434;SDS011;56625;54.322;18.582;2022-09-02T14:37:55;1.30;;;0.30;;
69434;SDS011;56625;54.322;18.582;2022-09-02T14:40:45;3.10;;;0.20;;
69434;SDS011;56625;54.322;18.582;2022-09-02T14:43:17;1.80;;;0.10;;
69434;SDS011;56625;54.322;18.582;2022-09-02T14:45:49;1.70;;;0.20;;
69434;SDS011;56625;54.322;18.582;2022-09-02T14:48:22;3.70;;;0.50;;
69434;SDS011;56625;54.322;18.582;2022-09-02T14:50:59;1.00;;;0.20;;
69434;SDS011;56625;54.322;18.582;2022-09-02T14:53:32;3.50;;;0.20;;
69434;SDS011;56625;54.322;18.582;2022-09-02T14:56:05;1.90;;;0.20;;
69434;SDS011;56625;54.322;18.582;2022-09-02T14:58:33;3.90;;;0.20;;
69434;SDS011;56625;54.322;18.582;2022-09-02T15:01:02;5.90;;;0.70;;
69434;SDS011;56625;54.322;18.582;2022-09-02T15:03:36;4.80;;;0.80;;
69434;SDS011;56625;54.322;18.582;2022-09-02T15:06:05;3.60;;;0.60;;
69434;SDS011;56625;54.322;18.582;2022-09-02T15:08:36;5.10;;;0.70;;
69434;SDS011;56625;54.322;18.582;2022-09-02T15:11:04;4.20;;;0.70;;
69434;SDS011;56625;54.322;18.582;2022-09-02T15:13:40;3.90;;;0.60;;
69434;SDS011;56625;54.322;18.582;2022-09-02T15:16:08;3.90;;;0.50;;
69434;SDS011;56625;54.322;18.582;2022-09-02T15:18:39;2.40;;;0.20;;
69434;SDS011;56625;54.322;18.582;2022-09-02T15:21:07;1.90;;;0.20;;
69434;SDS011;56625;54.322;18.582;2022-09-02T15:23:36;3.80;;;0.30;;
69434;SDS011;56625;54.322;18.582;2022-09-02T15:26:08;2.20;;;0.40;;
69434;SDS011;56625;54.322;18.582;2022-09-02T15:28:45;2.00;;;0.20;;
69434;SDS011;56625;54.322;18.582;2022-09-02T15:31:14;1.10;;;0.20;;
69434;SDS011;56625;54.322;18.582;2022-09-02T15:33:49;1.30;;;0.20;;
69434;SDS011;56625;54.322;18.582;2022-09-02T15:36:18;3.40;;;0.20;;
69434;SDS011;56625;54.322;18.582;2022-09-02T15:38:47;2.10;;;0.30;;
69434;SDS011;56625;54.322;18.582;2022-09-02T15:41:20;3.00;;;0.40;;
69434;SDS011;56625;54.322;18.582;2022-09-02T15:43:53;0.80;;;0.10;;
69434;SDS011;56625;54.322;18.582;2022-09-02T15:46:28;3.90;;;0.20;;
69434;SDS011;56625;54.322;18.582;2022-09-02T15:49:04;1.60;;;0.10;;
69434;SDS011;56625;54.322;18.582;2022-09-02T15:51:37;3.30;;;0.20;;
69434;SDS011;56625;54.322;18.582;2022-09-02T15:54:10;1.60;;;0.20;;
69434;SDS011;56625;54.322;18.582;2022-09-02T15:56:44;2.00;;;0.30;;
69434;SDS011;56625;54.322;18.582;2022-09-02T15:59:16;1.00;;;0.20;;
69434;SDS011;56625;54.322;18.582;2022-09-02T16:01:51;1.40;;;0.20;;
69434;SDS011;56625;54.322;18.582;2022-09-02T16:04:25;1.80;;;0.10;;
69434;SDS011;56625;54.322;18.582;2022-09-02T16:06:57;1.40;;;0.20;;
69434;SDS011;56625;54.322;18.582;2022-09-02T16:09:31;0.80;;;0.10;;
69434;SDS011;56625;54.322;18.582;2022-09-02T16:12:02;1.60;;;0.10;;
69434;SDS011;56625;54.322;18.582;2022-09-02T16:14:33;2.40;;;0.30;;
69434;SDS011;56625;54.322;18.582;2022-09-02T16:17:03;1.50;;;0.20;;
69434;SDS011;56625;54.322;18.582;2022-09-02T16:19:31;1.30;;;0.10;;
69434;SDS011;56625;54.322;18.582;2022-09-02T16:21:59;1.30;;;0.20;;
69434;SDS011;56625;54.322;18.582;2022-09-02T16:24:27;2.10;;;0.20;;
69434;SDS011;56625;54.322;18.582;2022-09-02T16:26:55;1.70;;;0.10;;
69434;SDS011;56625;54.322;18.582;2022-09-02T16:29:24;1.10;;;0.10;;
69434;SDS011;56625;54.322;18.582;2022-09-02T16:31:54;1.90;;;0.20;;